Time;durP1;ratioP1;P1;durP2;ratioP2;P2;SDS_P1;SDS_P2;PMS_P1;PMS_P2;Temp;Humidity;BMP_temperature;BMP_pressure;BME280_temperature;BME280_humidity;BME280_pressure;Samples;Min_cycle;Max_cycle;Signal;HPM_P1;HPM_P2
2022/07/29 00:02:09;;;;;;;1.02;0.52;;;;;;;16.03;53.09;100533.25;4884896;29;20029;-72
2022/07/29 00:04:35;;;;;;;0.70;0.50;;;;;;;16.00;53.18;100533.88;4895725;29;20089;-72
2022/07/29 00:07:03;;;;;;;1.67;0.90;;;;;;;15.98;53.15;100544.41;4882086;29;20025;-71
2022/07/29 00:09:29;;;;;;;3.25;0.93;;;;;;;15.93;53.24;100538.94;4883755;29;20172;-71
2022/07/29 00:11:58;;;;;;;1.92;1.10;;;;;;;15.87;53.21;100543.72;4870749;29;20745;-73
2022/07/29 00:14:24;;;;;;;2.80;1.30;;;;;;;15.81;53.65;100543.00;4893807;29;20040;-70
2022/07/29 00:16:49;;;;;;;1.67;1.05;;;;;;;15.84;53.61;100547.06;4874426;29;20096;-70
2022/07/29 00:19:14;;;;;;;2.53;1.52;;;;;;;15.86;53.78;100545.66;4857671;29;20108;-72
2022/07/29 00:21:40;;;;;;;3.55;1.52;;;;;;;16.00;53.54;100550.41;4861394;29;20052;-73
2022/07/29 00:24:05;;;;;;;3.92;1.80;;;;;;;15.95;53.63;100547.75;4891255;29;20068;-71
2022/07/29 00:26:32;;;;;;;2.22;1.25;;;;;;;15.88;53.54;100548.94;4872909;29;20036;-70
2022/07/29 00:29:02;;;;;;;1.70;1.30;;;;;;;15.82;53.94;100547.38;4863114;29;20040;-70
2022/07/29 00:31:27;;;;;;;2.38;1.38;;;;;;;15.77;53.62;100541.91;4858345;29;20036;-71
2022/07/29 00:33:53;;;;;;;4.38;1.65;;;;;;;15.77;53.99;100536.41;4862877;29;20766;-73
2022/07/29 00:36:20;;;;;;;2.15;1.40;;;;;;;15.81;53.95;100537.47;4870606;29;20045;-72
2022/07/29 00:38:49;;;;;;;3.00;1.58;;;;;;;15.86;53.92;100536.56;4875953;29;20029;-70
2022/07/29 00:41:15;;;;;;;2.95;1.42;;;;;;;15.91;53.85;100535.69;4887180;29;20029;-72
2022/07/29 00:43:41;;;;;;;3.08;1.50;;;;;;;15.90;54.07;100528.50;4875820;29;20028;-72
2022/07/29 00:46:06;;;;;;;3.45;1.55;;;;;;;15.92;54.19;100531.81;4876845;29;20676;-70
2022/07/29 00:48:32;;;;;;;1.40;1.23;;;;;;;15.91;54.34;100536.47;4879967;29;20035;-72
2022/07/29 00:50:59;;;;;;;3.33;1.65;;;;;;;15.85;54.40;100535.75;4889082;29;20040;-72
2022/07/29 00:53:26;;;;;;;1.77;1.00;;;;;;;15.82;54.32;100532.78;4875406;29;20028;-71
2022/07/29 00:55:54;;;;;;;1.48;0.95;;;;;;;15.89;54.46;100541.50;4877617;29;20136;-71
2022/07/29 00:58:20;;;;;;;1.40;1.02;;;;;;;15.87;54.23;100536.28;4871647;29;20032;-72
2022/07/29 01:00:45;;;;;;;0.63;0.60;;;;;;;15.82;54.50;100530.81;4878850;29;20436;-72
2022/07/29 01:03:10;;;;;;;1.27;0.70;;;;;;;15.74;54.54;100528.72;4879564;29;20065;-72
2022/07/29 01:05:36;;;;;;;1.42;0.80;;;;;;;15.69;54.96;100534.31;4869735;29;20073;-72
2022/07/29 01:08:02;;;;;;;1.00;0.85;;;;;;;15.63;54.88;100530.00;4867891;29;20061;-73
2022/07/29 01:10:29;;;;;;;0.70;0.70;;;;;;;15.57;54.92;100537.50;4891898;29;20037;-72
2022/07/29 01:12:58;;;;;;;1.45;1.02;;;;;;;15.52;54.65;100530.13;4867495;29;20017;-71
2022/07/29 01:15:24;;;;;;;0.95;0.52;;;;;;;15.48;55.64;100534.59;4885941;29;20101;-71
2022/07/29 01:17:53;;;;;;;1.30;0.75;;;;;;;15.45;55.23;100535.19;4888782;29;20028;-71
2022/07/29 01:20:39;;;;;;;0.43;0.40;;;;;;;15.39;55.51;100528.13;4895838;29;20029;-69
2022/07/29 01:23:10;;;;;;;0.80;0.68;;;;;;;15.36;55.75;100525.91;4875530;29;20025;-71
2022/07/29 01:26:02;;;;;;;1.23;0.60;;;;;;;15.44;55.60;100535.47;4886577;29;20097;-70
2022/07/29 01:28:47;;;;;;;0.75;0.50;;;;;;;15.41;55.38;100534.13;4876627;29;20033;-71
2022/07/29 01:31:18;;;;;;;3.80;0.80;;;;;;;15.33;55.80;100526.50;4891015;29;20033;-69
2022/07/29 01:33:50;;;;;;;1.90;0.80;;;;;;;15.30;55.75;100532.63;4876806;29;20134;-70
2022/07/29 01:36:25;;;;;;;1.52;0.80;;;;;;;15.25;56.01;100532.69;4872188;29;20495;-70
2022/07/29 01:39:13;;;;;;;1.75;0.93;;;;;;;15.23;55.63;100537.66;4882877;29;20033;-72
2022/07/29 01:41:47;;;;;;;1.20;0.88;;;;;;;15.15;55.92;100536.38;4888187;29;20028;-71
2022/07/29 01:44:19;;;;;;;2.50;0.77;;;;;;;15.15;56.37;100536.38;4891380;29;20021;-70
2022/07/29 01:46:53;;;;;;;0.65;0.60;;;;;;;15.11;56.18;100538.94;4872101;29;20060;-71
2022/07/29 01:49:27;;;;;;;2.05;0.70;;;;;;;15.11;56.75;100541.69;4871903;29;20108;-71
2022/07/29 01:52:10;;;;;;;1.30;0.60;;;;;;;15.10;56.37;100545.53;4881900;29;20047;-71
2022/07/29 01:54:48;;;;;;;0.90;0.70;;;;;;;15.05;56.33;100542.84;4876195;29;20032;-71
2022/07/29 01:57:17;;;;;;;1.20;0.75;;;;;;;14.93;56.16;100542.44;4884771;29;20033;-70
2022/07/29 01:59:46;;;;;;;1.08;0.73;;;;;;;14.83;57.27;100546.94;4884148;29;20037;-72
2022/07/29 02:02:15;;;;;;;0.75;0.55;;;;;;;14.80;57.16;100547.50;4893724;29;20546;-71
2022/07/29 02:04:42;;;;;;;1.85;0.63;;;;;;;14.76;57.29;100551.13;4890510;29;20071;-72
2022/07/29 02:07:12;;;;;;;0.65;0.60;;;;;;;14.66;57.73;100541.06;4875278;29;20043;-70
2022/07/29 02:09:40;;;;;;;0.80;0.60;;;;;;;14.61;57.69;100552.09;4890046;29;20397;-71
2022/07/29 02:12:07;;;;;;;0.50;0.50;;;;;;;14.61;57.94;100550.19;4881325;29;20094;-71
2022/07/29 02:17:59;;;;;;;1.05;0.57;;;;;;;14.64;58.07;100537.78;4894689;29;20531;-71
2022/07/29 02:20:27;;;;;;;1.30;0.60;;;;;;;14.67;58.35;100537.19;4870893;29;20060;-69
2022/07/29 02:22:55;;;;;;;0.50;0.50;;;;;;;14.65;57.80;100545.75;4860236;29;20125;-70
2022/07/29 02:25:21;;;;;;;0.50;0.40;;;;;;;14.66;58.04;100549.31;4892274;29;20045;-70
2022/07/29 02:27:50;;;;;;;1.55;0.65;;;;;;;14.61;58.17;100554.84;4872512;29;20029;-70
2022/07/29 02:30:17;;;;;;;0.80;0.60;;;;;;;14.58;58.56;100549.91;4881415;29;20543;-70
2022/07/29 02:32:45;;;;;;;0.85;0.60;;;;;;;14.56;58.28;100552.13;4892628;29;20095;-71
2022/07/29 02:35:14;;;;;;;0.40;0.40;;;;;;;14.52;58.60;100545.59;4876818;29;20033;-70
2022/07/29 02:37:40;;;;;;;0.88;0.70;;;;;;;14.56;58.59;100547.47;4888888;29;20035;-70
2022/07/29 02:40:11;;;;;;;1.05;0.60;;;;;;;14.60;58.87;100554.03;4881138;29;20119;-70
2022/07/29 02:42:38;;;;;;;1.50;0.57;;;;;;;14.66;58.89;100546.59;4882454;29;20040;-70
2022/07/29 02:45:07;;;;;;;0.80;0.60;;;;;;;14.71;58.21;100551.22;4894294;29;20387;-70
2022/07/29 02:47:41;;;;;;;1.27;0.63;;;;;;;14.79;58.61;100551.41;4860578;29;20498;-70
2022/07/29 02:50:20;;;;;;;0.40;0.40;;;;;;;14.86;58.37;100550.22;4883050;29;20041;-69
2022/07/29 02:53:05;;;;;;;0.50;0.40;;;;;;;14.90;58.40;100540.28;4886515;29;20088;-70
2022/07/29 02:55:36;;;;;;;0.50;0.50;;;;;;;14.94;58.49;100541.34;4884112;29;20064;-70
2022/07/29 02:58:03;;;;;;;1.45;0.60;;;;;;;14.95;58.82;100542.94;4872292;29;20472;-72
2022/07/29 03:00:31;;;;;;;0.65;0.60;;;;;;;14.99;58.47;100546.75;4879467;29;20055;-70
2022/07/29 03:02:59;;;;;;;0.60;0.57;;;;;;;15.01;58.29;100541.81;4896528;29;20476;-72
2022/07/29 03:05:26;;;;;;;0.55;0.52;;;;;;;15.01;58.65;100541.81;4892678;29;20039;-71
2022/07/29 03:07:57;;;;;;;1.95;0.60;;;;;;;15.01;58.94;100541.81;4879126;29;20056;-72
2022/07/29 03:10:24;;;;;;;0.90;0.40;;;;;;;15.07;58.61;100543.38;4890339;29;20036;-72
2022/07/29 03:12:51;;;;;;;0.80;0.60;;;;;;;15.07;58.86;100540.63;4879757;29;20029;-71
2022/07/29 03:15:18;;;;;;;1.58;0.50;;;;;;;15.07;58.74;100551.63;4872585;29;20048;-71
2022/07/29 03:17:44;;;;;;;3.50;0.57;;;;;;;15.04;58.80;100552.22;4897956;29;20141;-71
2022/07/29 03:20:11;;;;;;;0.90;0.82;;;;;;;14.98;59.40;100547.88;4900033;29;20033;-71
2022/07/29 03:22:43;;;;;;;0.90;0.60;;;;;;;14.93;59.42;100540.50;4885809;29;20467;-71
2022/07/29 03:25:13;;;;;;;0.60;0.60;;;;;;;14.88;59.50;100539.72;4874027;29;20392;-69
2022/07/29 03:27:39;;;;;;;0.45;0.40;;;;;;;14.85;59.58;100541.16;4889348;29;20029;-70
2022/07/29 03:30:06;;;;;;;0.43;0.43;;;;;;;14.78;59.66;100535.16;4862397;29;20032;-71
2022/07/29 03:32:32;;;;;;;0.50;0.47;;;;;;;14.78;60.37;100546.19;4877438;29;20041;-71
2022/07/29 03:34:57;;;;;;;0.63;0.50;;;;;;;14.73;59.89;100535.22;4877904;29;20029;-71
2022/07/29 03:37:23;;;;;;;0.40;0.40;;;;;;;14.78;60.21;100529.66;4863718;29;20408;-70
2022/07/29 03:39:51;;;;;;;0.85;0.50;;;;;;;14.82;60.44;100534.28;4878265;29;20139;-71
2022/07/29 03:42:20;;;;;;;0.82;0.40;;;;;;;14.84;60.42;100537.56;4895225;29;20049;-70
2022/07/29 03:44:48;;;;;;;1.05;0.50;;;;;;;14.84;60.02;100536.75;4889670;29;20472;-70
2022/07/29 03:47:16;;;;;;;0.85;0.50;;;;;;;14.89;60.14;100536.69;4895467;29;20076;-71
2022/07/29 03:49:44;;;;;;;1.13;0.60;;;;;;;14.93;60.16;100539.69;4891576;29;20032;-72
2022/07/29 03:52:10;;;;;;;2.15;0.47;;;;;;;14.95;60.15;100542.94;4892434;29;20108;-71
2022/07/29 03:54:35;;;;;;;0.75;0.40;;;;;;;14.92;60.24;100538.03;4863167;29;20089;-72
2022/07/29 03:57:03;;;;;;;0.57;0.30;;;;;;;14.90;60.56;100551.28;4846474;29;20028;-70
2022/07/29 03:59:32;;;;;;;0.40;0.40;;;;;;;14.87;60.68;100549.13;4871742;29;20037;-71
2022/07/29 04:01:58;;;;;;;1.05;0.50;;;;;;;14.86;60.92;100541.97;4875221;29;20417;-72
2022/07/29 04:04:24;;;;;;;0.40;0.40;;;;;;;14.85;61.20;100543.91;4870640;29;20044;-70
2022/07/29 04:06:50;;;;;;;0.70;0.40;;;;;;;14.87;60.97;100541.66;4853690;29;20087;-69
2022/07/29 04:09:15;;;;;;;2.38;0.30;;;;;;;14.88;60.98;100545.22;4879563;29;20135;-71
2022/07/29 04:11:42;;;;;;;1.45;0.40;;;;;;;14.92;61.49;100549.03;4897555;29;20027;-69
2022/07/29 04:14:07;;;;;;;0.43;0.35;;;;;;;14.91;61.46;100552.91;4858372;29;20036;-71
2022/07/29 04:16:33;;;;;;;0.38;0.25;;;;;;;14.93;61.23;100561.72;4873536;29;20037;-71
2022/07/29 04:18:59;;;;;;;0.40;0.40;;;;;;;14.92;61.29;100560.06;4867625;29;20507;-70
2022/07/29 04:21:25;;;;;;;0.47;0.30;;;;;;;14.89;61.42;100555.94;4876124;29;20037;-70
2022/07/29 04:23:50;;;;;;;0.25;0.25;;;;;;;14.88;61.58;100559.84;4886054;29;20025;-71
2022/07/29 04:26:17;;;;;;;0.20;0.20;;;;;;;14.84;61.76;100556.81;4879882;29;20033;-71
2022/07/29 04:28:42;;;;;;;0.50;0.40;;;;;;;14.83;61.88;100557.97;4880826;29;20035;-71
2022/07/29 04:31:08;;;;;;;1.05;0.40;;;;;;;14.83;62.10;100560.72;4893064;29;20044;-71
2022/07/29 04:33:34;;;;;;;1.92;0.70;;;;;;;14.87;61.84;100562.88;4873250;29;20040;-71
2022/07/29 04:35:59;;;;;;;0.30;0.30;;;;;;;14.91;62.25;100547.41;4880556;29;20024;-72
2022/07/29 04:38:25;;;;;;;0.65;0.30;;;;;;;14.96;61.95;100550.09;4888530;29;20035;-70
2022/07/29 04:40:50;;;;;;;0.47;0.30;;;;;;;15.01;61.95;100552.81;4873659;29;20036;-71
2022/07/29 04:43:16;;;;;;;1.45;0.35;;;;;;;15.06;61.83;100552.75;4881484;29;20033;-71
2022/07/29 04:45:42;;;;;;;1.42;0.73;;;;;;;15.05;61.87;100542.03;4887928;29;20025;-70
2022/07/29 04:48:07;;;;;;;1.20;0.50;;;;;;;15.14;62.12;100543.84;4889593;29;20031;-70
2022/07/29 04:50:33;;;;;;;0.93;0.45;;;;;;;15.15;61.88;100537.19;4876230;29;20032;-71
2022/07/29 04:52:58;;;;;;;0.80;0.50;;;;;;;15.17;62.11;100551.53;4875020;29;20100;-70
2022/07/29 04:55:24;;;;;;;0.98;0.43;;;;;;;15.15;62.14;100550.97;4863018;29;20039;-69
2022/07/29 04:57:50;;;;;;;0.70;0.45;;;;;;;15.17;61.93;100551.53;4857955;29;20056;-70
2022/07/29 05:00:15;;;;;;;0.68;0.40;;;;;;;15.19;61.91;100546.53;4864746;29;20028;-71
2022/07/29 05:02:41;;;;;;;1.00;0.60;;;;;;;15.21;62.13;100545.41;4860235;29;20041;-70
2022/07/29 05:05:07;;;;;;;1.40;0.93;;;;;;;15.28;62.14;100559.66;4863910;29;20073;-70
2022/07/29 05:07:32;;;;;;;0.70;0.50;;;;;;;15.33;62.02;100554.06;4863123;29;20048;-71
2022/07/29 05:09:58;;;;;;;1.08;0.70;;;;;;;15.32;62.24;100563.47;4891334;29;20055;-71
2022/07/29 05:12:24;;;;;;;3.47;0.60;;;;;;;15.29;62.29;100575.06;4888310;29;20446;-71
2022/07/29 05:14:50;;;;;;;1.42;0.47;;;;;;;15.26;62.46;100582.00;4872460;29;20044;-72
2022/07/29 05:17:15;;;;;;;0.68;0.50;;;;;;;15.26;62.77;100582.00;4873835;29;20044;-70
2022/07/29 05:19:40;;;;;;;2.17;0.80;;;;;;;15.36;62.60;100584.63;4887502;29;20116;-71
2022/07/29 05:22:06;;;;;;;1.90;0.43;;;;;;;15.44;62.18;100572.13;4871995;29;20075;-70
2022/07/29 05:24:31;;;;;;;0.80;0.55;;;;;;;15.58;61.86;100576.91;4862276;29;20037;-69
2022/07/29 05:26:57;;;;;;;0.55;0.30;;;;;;;15.67;62.00;100575.16;4883290;29;20037;-71
2022/07/29 05:29:22;;;;;;;1.35;0.50;;;;;;;15.77;61.47;100583.28;4860574;29;20540;-71
2022/07/29 05:31:47;;;;;;;0.40;0.30;;;;;;;15.83;61.72;100582.09;4886013;29;20125;-71
2022/07/29 05:34:13;;;;;;;0.20;0.20;;;;;;;15.88;61.53;100593.03;4876265;29;20048;-71
2022/07/29 05:36:38;;;;;;;0.45;0.20;;;;;;;15.92;61.48;100581.44;4871838;29;20123;-71
2022/07/29 05:39:04;;;;;;;0.57;0.32;;;;;;;16.00;61.56;100589.03;4884130;29;20120;-70
2022/07/29 05:41:32;;;;;;;0.82;0.60;;;;;;;16.02;61.52;100582.09;4866177;29;20032;-70
2022/07/29 05:43:58;;;;;;;1.05;0.30;;;;;;;16.04;61.65;100579.03;4883119;29;20095;-71
2022/07/29 05:46:24;;;;;;;0.93;0.57;;;;;;;16.04;61.35;100581.81;4894005;29;20040;-72
2022/07/29 05:48:49;;;;;;;0.70;0.50;;;;;;;16.03;61.63;100585.66;4871278;29;20028;-71
2022/07/29 05:51:15;;;;;;;1.15;0.43;;;;;;;16.00;61.61;100580.75;4865121;29;20063;-72
2022/07/29 05:53:40;;;;;;;2.22;0.80;;;;;;;16.08;61.48;100590.28;4845884;29;20032;-72
2022/07/29 05:56:07;;;;;;;1.13;0.50;;;;;;;16.10;61.68;100586.13;4869641;29;20064;-72
2022/07/29 05:58:32;;;;;;;1.88;0.30;;;;;;;16.15;61.37;100586.06;4875653;29;20052;-72
2022/07/29 06:00:59;;;;;;;0.93;0.70;;;;;;;16.23;61.41;100576.25;4884639;29;20064;-71
2022/07/29 06:03:25;;;;;;;0.63;0.50;;;;;;;16.36;61.16;100586.53;4855480;29;20061;-72
2022/07/29 06:05:50;;;;;;;0.70;0.50;;;;;;;16.43;60.94;100569.59;4893760;29;20032;-72
2022/07/29 06:08:17;;;;;;;0.90;0.50;;;;;;;16.72;60.73;100593.41;4877043;29;20091;-73
2022/07/29 06:10:43;;;;;;;0.88;0.50;;;;;;;16.87;60.31;100595.91;4895256;29;20037;-72
2022/07/29 06:13:08;;;;;;;1.20;0.60;;;;;;;17.08;60.37;100595.53;4860947;29;20044;-72
2022/07/29 06:15:34;;;;;;;1.55;0.73;;;;;;;17.25;59.51;100589.41;4861033;29;20033;-73
2022/07/29 06:17:59;;;;;;;2.25;0.57;;;;;;;17.44;59.50;100592.03;4863265;29;20025;-72
2022/07/29 06:20:25;;;;;;;1.08;0.50;;;;;;;17.56;59.10;100600.63;4873315;29;20044;-71
2022/07/29 06:22:50;;;;;;;0.50;0.40;;;;;;;17.77;59.03;100605.72;4865589;29;20044;-71
2022/07/29 06:25:16;;;;;;;0.73;0.50;;;;;;;17.99;58.47;100606.94;4849122;29;20041;-72
2022/07/29 06:27:41;;;;;;;0.40;0.40;;;;;;;18.20;57.63;100608.09;4873668;29;20106;-70
2022/07/29 06:30:07;;;;;;;0.40;0.40;;;;;;;18.36;57.50;100610.50;4872127;29;20849;-72
2022/07/29 06:32:33;;;;;;;0.85;0.63;;;;;;;18.49;57.09;100620.69;4890676;29;20029;-70
2022/07/29 06:34:59;;;;;;;0.80;0.50;;;;;;;18.60;56.62;100611.00;4884875;29;20070;-70
2022/07/29 06:37:24;;;;;;;1.02;0.60;;;;;;;18.64;56.66;100616.72;4881728;29;20050;-69
2022/07/29 06:40:59;;;;;;;2.45;0.80;;;;;;;18.61;56.76;100615.41;4882758;29;20045;-72
2022/07/29 06:42:35;;;;;;;2.05;0.80;;;;;;;18.54;56.35;100617.78;4874495;29;20033;-70
2022/07/29 06:45:00;;;;;;;3.50;1.00;;;;;;;18.49;56.39;100629.00;4884665;29;20069;-69
2022/07/29 06:47:26;;;;;;;1.58;0.90;;;;;;;18.42;56.59;100623.09;4865032;29;20036;-70
2022/07/29 06:49:51;;;;;;;2.25;0.77;;;;;;;18.36;56.62;100621.59;4871618;29;20040;-69
2022/07/29 06:52:17;;;;;;;0.80;0.80;;;;;;;18.26;56.69;100615.13;4860368;29;20048;-70
2022/07/29 06:54:47;;;;;;;2.03;0.70;;;;;;;18.23;57.29;100617.72;4868895;29;20488;-71
2022/07/29 06:57:13;;;;;;;2.40;0.73;;;;;;;18.21;57.79;100631.03;4875353;29;20712;-70
2022/07/29 06:59:39;;;;;;;0.63;0.60;;;;;;;18.27;57.92;100629.81;4884905;29;20037;-69
2022/07/29 07:02:04;;;;;;;0.60;0.50;;;;;;;18.34;57.19;100632.13;4870099;29;20084;-71
2022/07/29 07:04:29;;;;;;;2.00;0.60;;;;;;;18.33;57.71;100633.28;4859872;29;20033;-70
2022/07/29 07:06:55;;;;;;;0.68;0.45;;;;;;;18.34;57.10;100634.91;4868224;29;20509;-71
2022/07/29 07:09:21;;;;;;;0.95;0.40;;;;;;;18.33;57.31;100633.28;4863410;29;20453;-71
2022/07/29 07:11:46;;;;;;;1.33;0.75;;;;;;;18.41;57.22;100635.28;4891388;29;20170;-71
2022/07/29 07:14:12;;;;;;;1.70;0.90;;;;;;;18.49;57.68;100626.25;4875078;29;20132;-70
2022/07/29 07:16:37;;;;;;;2.30;0.80;;;;;;;18.62;57.85;100625.34;4848006;29;20029;-71
2022/07/29 07:19:03;;;;;;;1.70;0.50;;;;;;;18.75;57.08;100628.34;4877906;29;20040;-71
2022/07/29 07:21:28;;;;;;;1.48;0.68;;;;;;;18.83;56.88;100630.38;4873620;29;20037;-72
2022/07/29 07:23:54;;;;;;;1.75;0.60;;;;;;;18.98;57.06;100631.94;4891582;29;20044;-74
2022/07/29 07:26:19;;;;;;;1.13;0.60;;;;;;;19.19;56.67;100637.75;4865839;29;20033;-71
2022/07/29 07:28:45;;;;;;;0.80;0.50;;;;;;;19.42;56.01;100629.34;4864521;29;20033;-70
2022/07/29 07:31:11;;;;;;;1.15;0.65;;;;;;;19.59;56.07;100640.50;4876061;29;20029;-72
2022/07/29 07:33:37;;;;;;;0.68;0.50;;;;;;;19.66;55.31;100635.31;4880386;29;20693;-72
2022/07/29 07:36:02;;;;;;;1.33;0.77;;;;;;;19.73;55.85;100639.56;4876572;29;20062;-71
2022/07/29 07:38:28;;;;;;;2.15;0.60;;;;;;;19.78;55.39;100636.66;4865747;29;20045;-72
2022/07/29 07:40:54;;;;;;;1.50;0.80;;;;;;;19.90;55.24;100645.19;4870821;29;20036;-70
2022/07/29 07:43:19;;;;;;;0.80;0.50;;;;;;;20.00;54.79;100642.09;4859954;29;20040;-72
2022/07/29 07:45:45;;;;;;;1.33;0.50;;;;;;;20.05;54.60;100644.72;4870723;29;20037;-72
2022/07/29 07:48:10;;;;;;;1.13;0.63;;;;;;;20.19;54.54;100650.13;4856832;29;20028;-74
2022/07/29 07:50:36;;;;;;;2.70;0.93;;;;;;;20.09;54.62;100652.41;4882280;29;20043;-72
2022/07/29 07:53:02;;;;;;;1.25;0.63;;;;;;;20.18;54.06;100644.88;4856138;29;20036;-75
2022/07/29 07:55:27;;;;;;;1.10;0.90;;;;;;;20.33;53.76;100647.19;4868149;29;20031;-72
2022/07/29 07:57:54;;;;;;;1.85;0.90;;;;;;;20.48;53.43;100647.84;4862234;29;20555;-70
2022/07/29 08:00:21;;;;;;;1.00;0.80;;;;;;;20.56;52.75;100644.25;4877737;29;20025;-71
2022/07/29 08:02:46;;;;;;;3.08;1.20;;;;;;;20.52;52.18;100626.59;4877323;29;20036;-70
2022/07/29 08:05:16;;;;;;;2.20;0.93;;;;;;;20.62;51.76;100642.94;4844984;29;20037;-68
2022/07/29 08:07:43;;;;;;;5.20;1.05;;;;;;;20.72;51.54;100642.63;4877474;29;20096;-71
2022/07/29 08:10:09;;;;;;;0.60;0.60;;;;;;;20.82;51.42;100635.06;4893537;29;20508;-71
2022/07/29 08:12:34;;;;;;;1.25;0.68;;;;;;;20.92;50.76;100634.72;4869730;29;20037;-72
2022/07/29 08:15:00;;;;;;;2.30;0.80;;;;;;;20.97;50.38;100633.72;4877750;29;20032;-73
2022/07/29 08:17:26;;;;;;;1.15;0.68;;;;;;;21.08;49.69;100641.38;4880889;29;20151;-71
2022/07/29 08:19:52;;;;;;;1.20;0.60;;;;;;;21.18;49.14;100648.53;4891328;29;20029;-71
2022/07/29 08:22:17;;;;;;;1.35;0.60;;;;;;;21.25;48.50;100653.59;4859875;29;20064;-72
2022/07/29 08:24:43;;;;;;;2.00;0.90;;;;;;;21.26;48.47;100642.13;4859995;29;20041;-70
2022/07/29 08:27:10;;;;;;;1.98;0.70;;;;;;;21.39;48.29;100643.06;4855358;29;20091;-73
2022/07/29 08:29:35;;;;;;;1.98;0.70;;;;;;;21.54;48.02;100640.91;4877773;29;20704;-71
2022/07/29 08:32:01;;;;;;;1.42;0.77;;;;;;;21.71;47.29;100638.03;4870889;29;20029;-71
2022/07/29 08:34:28;;;;;;;2.85;1.00;;;;;;;21.82;46.57;100638.44;4875933;29;20040;-72
2022/07/29 08:36:54;;;;;;;0.75;0.45;;;;;;;21.90;46.46;100639.53;4850697;29;20777;-72
2022/07/29 08:39:19;;;;;;;1.73;0.75;;;;;;;22.05;45.96;100647.28;4875041;29;20056;-71
2022/07/29 08:41:45;;;;;;;0.65;0.50;;;;;;;22.16;45.31;100646.88;4877127;29;20036;-71
2022/07/29 08:44:10;;;;;;;1.58;0.73;;;;;;;22.24;45.50;100645.97;4862893;29;20047;-73
2022/07/29 08:46:39;;;;;;;1.10;0.73;;;;;;;22.27;44.66;100645.34;4855515;29;20429;-72
2022/07/29 08:49:05;;;;;;;1.27;0.50;;;;;;;22.35;44.15;100644.47;4880287;29;20040;-71
2022/07/29 08:51:35;;;;;;;3.47;0.68;;;;;;;22.29;43.33;100641.03;4860051;29;20036;-71
2022/07/29 08:54:01;;;;;;;2.08;0.75;;;;;;;22.37;43.47;100642.16;4874940;29;20097;-72
2022/07/29 08:56:27;;;;;;;1.35;0.68;;;;;;;22.47;42.97;100635.34;4871733;29;20029;-71
2022/07/29 08:58:53;;;;;;;4.30;1.02;;;;;;;22.51;42.82;100629.91;4887568;29;20108;-73
2022/07/29 09:01:27;;;;;;;0.98;0.50;;;;;;;22.64;42.73;100634.38;4873039;29;20132;-71
2022/07/29 09:03:56;;;;;;;1.05;0.43;;;;;;;22.80;42.64;100632.56;4890071;29;20028;-71
2022/07/29 09:06:25;;;;;;;3.03;0.50;;;;;;;22.95;42.47;100636.66;4872333;29;20037;-71
2022/07/29 09:08:51;;;;;;;1.75;0.70;;;;;;;23.05;42.04;100635.41;4874199;29;20024;-71
2022/07/29 09:11:17;;;;;;;0.60;0.30;;;;;;;23.17;41.78;100652.19;4870682;29;20120;-72
2022/07/29 09:13:42;;;;;;;0.70;0.57;;;;;;;23.23;40.39;100646.38;4872869;29;20056;-73
2022/07/29 09:16:07;;;;;;;0.68;0.40;;;;;;;23.28;40.27;100648.97;4864281;29;20037;-72
2022/07/29 09:18:35;;;;;;;2.38;0.68;;;;;;;23.22;39.05;100647.53;4876953;29;20029;-74
2022/07/29 09:24:05;;;;;;;1.15;0.50;;;;;;;23.43;39.16;100641.88;4887362;29;20503;-71
2022/07/29 09:26:32;;;;;;;1.27;0.52;;;;;;;23.58;38.63;100643.16;4879986;29;20039;-71
2022/07/29 09:28:58;;;;;;;0.70;0.40;;;;;;;23.74;38.92;100646.84;4867027;29;20029;-73
2022/07/29 09:31:34;;;;;;;1.95;0.70;;;;;;;23.78;37.57;100639.41;4864482;29;20080;-71
2022/07/29 09:34:00;;;;;;;1.30;0.40;;;;;;;23.87;37.52;100647.69;4886069;29;20045;-71
2022/07/29 09:36:26;;;;;;;0.45;0.40;;;;;;;24.06;37.54;100652.66;4887133;29;20100;-72
2022/07/29 09:39:02;;;;;;;0.73;0.35;;;;;;;24.25;37.30;100648.44;4859270;29;20028;-71
2022/07/29 09:41:29;;;;;;;0.68;0.40;;;;;;;24.28;36.61;100653.31;4876929;29;20127;-72
2022/07/29 09:43:58;;;;;;;0.50;0.40;;;;;;;24.38;36.47;100647.22;4877429;29;20032;-73
2022/07/29 09:46:25;;;;;;;1.67;0.50;;;;;;;24.41;32.93;100640.91;4891113;29;20017;-71
2022/07/29 09:49:12;;;;;;;1.73;0.60;;;;;;;24.97;33.69;100639.25;4877331;29;20044;-73
2022/07/29 09:51:38;;;;;;;1.23;0.52;;;;;;;26.24;31.82;100639.16;4882688;29;20120;-72
2022/07/29 09:54:25;;;;;;;1.30;0.50;;;;;;;27.64;29.49;100646.56;4853358;29;20075;-71
2022/07/29 09:56:53;;;;;;;0.75;0.60;;;;;;;28.77;27.59;100643.25;4853188;29;20534;-73
2022/07/29 09:59:24;;;;;;;4.68;0.63;;;;;;;29.63;26.44;100632.78;4888483;29;20033;-73
2022/07/29 10:01:49;;;;;;;0.98;0.30;;;;;;;30.74;26.29;100643.81;4870274;29;20032;-71
2022/07/29 10:04:16;;;;;;;0.20;0.20;;;;;;;31.68;25.22;100641.09;4894478;29;20037;-73
2022/07/29 10:06:59;;;;;;;0.52;0.35;;;;;;;32.88;24.67;100645.91;4888138;29;20025;-72
2022/07/29 10:09:25;;;;;;;0.63;0.57;;;;;;;33.64;22.82;100647.34;4890641;29;20109;-72
2022/07/29 10:12:23;;;;;;;1.38;0.65;;;;;;;34.36;21.85;100649.41;4892269;29;20060;-74
2022/07/29 10:14:49;;;;;;;1.52;0.40;;;;;;;33.99;20.47;100643.34;4809951;29;20080;-74
2022/07/29 10:17:16;;;;;;;2.17;0.60;;;;;;;33.46;19.48;100639.81;4888224;29;20064;-72
2022/07/29 10:19:42;;;;;;;1.85;0.60;;;;;;;33.42;20.47;100639.03;4886434;29;20120;-72
2022/07/29 10:22:09;;;;;;;1.25;0.57;;;;;;;34.25;21.13;100644.66;4888274;29;20044;-73
2022/07/29 10:24:37;;;;;;;0.30;0.30;;;;;;;34.95;20.74;100646.16;4893735;29;20017;-72
2022/07/29 10:27:05;;;;;;;3.92;0.82;;;;;;;34.92;18.76;100644.19;4875837;29;20369;-71
2022/07/29 10:29:33;;;;;;;1.40;0.65;;;;;;;34.75;18.87;100646.03;4876220;29;20123;-72
2022/07/29 10:32:07;;;;;;;1.17;0.70;;;;;;;34.77;18.25;100648.47;4874353;29;20119;-72
2022/07/29 10:34:41;;;;;;;;;;;;;;;34.68;18.77;100648.16;4871416;29;20046;-73
2022/07/29 10:37:10;;;;;;;;;;;;;;;35.40;19.21;100649.97;4887234;29;19926;-72
2022/07/29 10:39:57;;;;;;;1.20;0.32;;;;;;;35.69;19.44;100652.25;4877516;29;19915;-75
2022/07/29 10:42:27;;;;;;;0.68;0.30;;;;;;;35.56;19.18;100647.22;4869630;29;20036;-72
2022/07/29 10:44:54;;;;;;;1.70;0.50;;;;;;;35.08;18.26;100654.91;4876377;29;20039;-72
2022/07/29 10:47:23;;;;;;;1.17;0.60;;;;;;;33.47;18.96;100647.09;4895500;29;20041;-72
2022/07/29 10:50:00;;;;;;;1.15;0.52;;;;;;;32.81;20.45;100647.97;4870802;29;20117;-72
2022/07/29 10:52:52;;;;;;;0.93;0.30;;;;;;;32.51;20.42;100650.13;4891272;29;20021;-72
2022/07/29 10:55:36;;;;;;;1.40;0.40;;;;;;;31.68;21.34;100655.22;4883568;29;20049;-72
2022/07/29 10:58:18;;;;;;;1.30;0.57;;;;;;;31.25;20.97;100649.56;4871647;29;20056;-72
2022/07/29 11:00:49;;;;;;;1.67;0.63;;;;;;;30.41;21.78;100653.34;4884291;29;20068;-73
2022/07/29 11:03:44;;;;;;;0.77;0.50;;;;;;;30.05;22.81;100647.53;4889490;29;20078;-71
2022/07/29 11:06:09;;;;;;;0.43;0.43;;;;;;;30.08;23.62;100641.94;4884735;29;20079;-72
2022/07/29 11:08:35;;;;;;;0.28;0.20;;;;;;;30.42;24.56;100650.16;4886646;29;20516;-73
2022/07/29 11:11:18;;;;;;;0.82;0.40;;;;;;;30.85;25.07;100643.84;4895009;29;20114;-72
2022/07/29 11:13:47;;;;;;;0.30;0.30;;;;;;;31.06;25.47;100640.28;4876087;29;20043;-72
2022/07/29 11:16:16;;;;;;;2.80;0.70;;;;;;;31.08;25.11;100640.66;4881150;29;20028;-72
2022/07/29 11:19:10;;;;;;;0.68;0.50;;;;;;;31.31;25.38;100647.97;4880059;29;20679;-72
2022/07/29 11:21:37;;;;;;;1.85;0.52;;;;;;;31.55;25.71;100637.84;4885138;29;20032;-74
2022/07/29 11:24:13;;;;;;;0.47;0.47;;;;;;;31.88;25.77;100637.81;4860016;29;20128;-75
2022/07/29 11:26:39;;;;;;;0.55;0.40;;;;;;;32.33;24.51;100655.88;4882465;29;20036;-73
2022/07/29 11:29:21;;;;;;;2.08;0.63;;;;;;;32.73;22.71;100655.72;4882414;29;20029;-73
2022/07/29 11:31:53;;;;;;;0.30;0.30;;;;;;;33.27;22.07;100648.91;4888569;29;20047;-74
2022/07/29 11:34:32;;;;;;;0.43;0.30;;;;;;;34.90;21.93;100651.53;4881777;29;20165;-73
2022/07/29 11:37:13;;;;;;;7.47;0.45;;;;;;;37.61;16.61;100656.19;4864801;29;20036;-75
2022/07/29 11:39:47;;;;;;;1.05;0.47;;;;;;;39.69;15.27;100647.44;4876102;29;20040;-74